Time;durP1;ratioP1;P1;durP2;ratioP2;P2;SDS_P1;SDS_P2;PMS_P1;PMS_P2;Temp;Humidity;BMP_temperature;BMP_pressure;BME280_temperature;BME280_humidity;BME280_pressure;Samples;Min_cycle;Max_cycle;Signal;HPM_P1;HPM_P2
2021/10/28 00:13:33;;;;;;;17.00;10.50;;;5.90;99.90;;;;;;5054271;28;20036;-65
2021/10/28 00:16:08;;;;;;;21.83;11.07;;;5.80;99.90;;;;;;5053643;28;20054;-65
2021/10/28 00:18:45;;;;;;;19.33;11.27;;;5.70;99.90;;;;;;5053712;28;20025;-64
2021/10/28 00:21:12;;;;;;;26.05;11.63;;;5.60;99.90;;;;;;5053970;28;20025;-65
2021/10/28 00:24:20;;;;;;;26.80;11.93;;;5.60;99.90;;;;;;5053780;28;20605;-65
2021/10/28 00:26:28;;;;;;;17.02;12.20;;;5.60;99.90;;;;;;5045052;28;20037;-64
2021/10/28 00:28:59;;;;;;;14.88;11.32;;;5.60;99.90;;;;;;5053696;28;20029;-64
2021/10/28 00:31:29;;;;;;;24.15;12.57;;;5.60;99.90;;;;;;5053242;28;20041;-66
2021/10/28 00:33:55;;;;;;;22.42;12.88;;;5.70;99.90;;;;;;5052303;28;20021;-65
2021/10/28 00:36:22;;;;;;;16.60;13.15;;;5.70;99.90;;;;;;5052976;28;20032;-66
2021/10/28 00:38:51;;;;;;;21.38;12.75;;;5.70;99.90;;;;;;5053185;28;20021;-64
2021/10/28 00:41:20;;;;;;;18.52;12.90;;;5.80;99.90;;;;;;5053201;28;20025;-65
2021/10/28 00:43:49;;;;;;;18.15;13.35;;;5.70;99.90;;;;;;5053290;28;20024;-65
2021/10/28 00:46:16;;;;;;;18.92;13.07;;;5.70;99.90;;;;;;5051662;28;20027;-65
2021/10/28 00:48:47;;;;;;;14.52;11.70;;;5.70;99.90;;;;;;5053443;28;20067;-64
2021/10/28 00:51:13;;;;;;;20.77;11.10;;;5.70;99.90;;;;;;5054956;28;20569;-65
2021/10/28 00:53:39;;;;;;;14.90;11.02;;;5.70;99.90;;;;;;5052277;28;20499;-65
2021/10/28 00:56:06;;;;;;;33.90;12.27;;;5.60;99.90;;;;;;5052386;28;20380;-64
2021/10/28 00:58:33;;;;;;;18.45;11.52;;;5.60;99.90;;;;;;5052574;28;20032;-64
2021/10/28 01:01:00;;;;;;;16.75;12.23;;;5.60;99.90;;;;;;5052880;28;20096;-65
2021/10/28 01:03:27;;;;;;;17.40;12.82;;;5.60;99.90;;;;;;5052862;28;20021;-63
2021/10/28 01:05:53;;;;;;;15.20;12.05;;;5.60;99.90;;;;;;5052869;28;20082;-65
2021/10/28 01:08:18;;;;;;;14.40;11.38;;;5.60;99.90;;;;;;5052736;28;20406;-66
2021/10/28 01:10:49;;;;;;;18.60;11.73;;;5.50;99.90;;;;;;5052944;28;20096;-65
2021/10/28 01:13:16;;;;;;;62.67;12.93;;;5.60;99.90;;;;;;5052336;28;20056;-65
2021/10/28 01:15:42;;;;;;;42.97;12.40;;;5.60;99.90;;;;;;5051873;28;20028;-64
2021/10/28 01:18:12;;;;;;;19.40;11.98;;;5.70;99.90;;;;;;5052469;28;20032;-70
2021/10/28 01:20:40;;;;;;;36.00;13.45;;;5.70;99.90;;;;;;5052691;28;20040;-65
2021/10/28 01:23:08;;;;;;;24.13;12.02;;;5.70;99.90;;;;;;5051450;28;20032;-64
2021/10/28 01:25:35;;;;;;;51.40;11.63;;;5.70;99.90;;;;;;5051609;28;20013;-64
2021/10/28 01:28:02;;;;;;;16.95;11.05;;;5.60;99.90;;;;;;5052565;28;20020;-64
2021/10/28 01:30:28;;;;;;;24.02;13.40;;;5.70;99.90;;;;;;5052218;28;20025;-64
2021/10/28 01:32:54;;;;;;;16.88;11.45;;;5.60;99.90;;;;;;5052230;28;20025;-63
2021/10/28 01:35:19;;;;;;;13.63;10.48;;;5.50;99.90;;;;;;5051672;28;20383;-63
2021/10/28 01:37:46;;;;;;;28.70;11.30;;;5.50;99.90;;;;;;5052247;28;20103;-66
2021/10/28 01:40:13;;;;;;;35.85;11.25;;;5.50;99.90;;;;;;5052150;28;20029;-65
2021/10/28 01:42:44;;;;;;;14.30;10.63;;;5.50;99.90;;;;;;5052340;28;20029;-65
2021/10/28 01:45:10;;;;;;;23.13;11.00;;;5.40;99.90;;;;;;5051554;28;20021;-63
2021/10/28 01:47:36;;;;;;;15.48;11.10;;;5.30;99.90;;;;;;5051869;28;20029;-64
2021/10/28 01:50:02;;;;;;;26.55;11.27;;;5.30;99.90;;;;;;5051971;28;20033;-64
2021/10/28 01:52:27;;;;;;;22.67;12.43;;;5.30;99.90;;;;;;5052179;28;20056;-64
2021/10/28 01:54:53;;;;;;;78.55;17.23;;;5.20;99.90;;;;;;5051167;28;20455;-64
2021/10/28 01:57:22;;;;;;;66.40;16.00;;;5.30;99.90;;;;;;5052005;28;20103;-64
2021/10/28 01:59:49;;;;;;;22.83;15.88;;;5.40;99.90;;;;;;5050859;28;20020;-64
2021/10/28 02:02:15;;;;;;;19.45;13.15;;;5.40;99.90;;;;;;5051487;28;20037;-63
2021/10/28 02:04:41;;;;;;;16.33;12.27;;;5.30;99.90;;;;;;5051278;28;20029;-64
2021/10/28 02:07:07;;;;;;;22.85;12.30;;;5.30;99.90;;;;;;5051523;28;20021;-64
2021/10/28 02:09:34;;;;;;;25.80;12.52;;;5.20;99.90;;;;;;5051382;28;20033;-64
2021/10/28 02:12:00;;;;;;;23.65;12.52;;;5.20;99.90;;;;;;5051344;28;20040;-63
2021/10/28 02:14:26;;;;;;;23.98;12.02;;;5.10;99.90;;;;;;5051280;28;20021;-65
2021/10/28 02:16:53;;;;;;;25.48;13.38;;;5.20;99.90;;;;;;5051523;28;20098;-64
2021/10/28 02:19:19;;;;;;;24.45;13.98;;;5.10;99.90;;;;;;5051234;28;20168;-65
2021/10/28 02:21:45;;;;;;;17.00;11.52;;;5.20;99.90;;;;;;5050210;28;20212;-66
2021/10/28 02:24:11;;;;;;;36.72;13.75;;;5.20;99.90;;;;;;5051288;28;20024;-65
2021/10/28 02:26:37;;;;;;;17.30;12.45;;;5.30;99.90;;;;;;5050789;28;20021;-64
2021/10/28 02:29:03;;;;;;;17.27;12.20;;;5.20;99.90;;;;;;5051368;28;20028;-65
2021/10/28 02:31:31;;;;;;;16.15;12.05;;;5.20;99.90;;;;;;5051222;28;20021;-64
2021/10/28 02:33:56;;;;;;;17.90;12.35;;;5.20;99.90;;;;;;5051048;28;20025;-64
2021/10/28 02:36:22;;;;;;;24.38;13.30;;;5.20;99.90;;;;;;5049473;28;20044;-63
2021/10/28 02:38:48;;;;;;;19.05;12.63;;;5.20;99.90;;;;;;5051309;28;20040;-65
2021/10/28 02:41:14;;;;;;;24.95;12.48;;;5.20;99.90;;;;;;5051230;28;20032;-64
2021/10/28 02:43:40;;;;;;;15.15;11.45;;;5.20;99.90;;;;;;5051252;28;20143;-64
2021/10/28 02:46:05;;;;;;;16.33;12.73;;;5.10;99.90;;;;;;5050819;28;20470;-65
2021/10/28 02:48:31;;;;;;;35.15;13.02;;;5.10;99.90;;;;;;5051111;28;20421;-63
2021/10/28 02:50:57;;;;;;;42.28;13.38;;;5.00;99.90;;;;;;5050807;28;20026;-66
2021/10/28 02:53:22;;;;;;;28.90;12.93;;;5.10;99.90;;;;;;5051193;28;20107;-66
2021/10/28 02:55:48;;;;;;;88.00;12.68;;;5.10;99.90;;;;;;5050767;28;20033;-65
2021/10/28 02:58:14;;;;;;;52.72;14.05;;;5.00;99.90;;;;;;5051041;28;20475;-63
2021/10/28 03:00:39;;;;;;;17.30;12.60;;;5.10;99.90;;;;;;5051364;28;20033;-64
2021/10/28 03:03:05;;;;;;;48.28;14.10;;;5.10;99.90;;;;;;5050850;28;20471;-65
2021/10/28 03:05:31;;;;;;;73.78;15.27;;;5.00;99.90;;;;;;5050034;28;20040;-65
2021/10/28 03:07:57;;;;;;;25.65;14.40;;;4.90;99.90;;;;;;5051114;28;20100;-64
2021/10/28 03:10:22;;;;;;;33.63;13.05;;;4.90;99.90;;;;;;5050761;28;20079;-64
2021/10/28 03:12:51;;;;;;;29.48;12.75;;;4.80;99.90;;;;;;5071406;22;20037;-64
2021/10/28 03:15:17;;;;;;;65.60;15.00;;;5.00;99.90;;;;;;5040557;28;20016;-64
2021/10/28 03:18:13;;;;;;;43.53;15.10;;;4.80;99.90;;;;;;5050539;28;20020;-63
2021/10/28 03:26:07;;;;;;;25.15;14.23;;;4.90;99.90;;;;;;5054598;28;20036;-64
2021/10/28 03:28:33;;;;;;;21.15;15.45;;;4.80;99.90;;;;;;5020031;28;20433;-65
2021/10/28 03:30:59;;;;;;;19.98;14.70;;;4.90;99.90;;;;;;5053603;28;20095;-64
2021/10/28 03:33:24;;;;;;;23.75;15.90;;;4.90;99.90;;;;;;5052791;28;20426;-65
2021/10/28 03:35:51;;;;;;;27.98;14.73;;;5.00;99.90;;;;;;5040903;28;20025;-65
2021/10/28 04:00:02;;;;;;;22.77;15.50;;;5.10;99.90;;;;;;5033718;28;20040;-65
2021/10/28 04:29:03;;;;;;;26.23;15.13;;;4.80;99.90;;;;;;5044769;28;20036;-65
2021/10/28 04:31:32;;;;;;;22.20;14.93;;;4.80;99.90;;;;;;5033377;28;20028;-65
2021/10/28 04:34:01;;;;;;;22.33;14.75;;;4.80;99.90;;;;;;5032567;28;20037;-65
2021/10/28 04:36:30;;;;;;;29.75;14.63;;;4.80;99.90;;;;;;5032463;28;20029;-65
2021/10/28 04:39:01;;;;;;;26.85;16.65;;;5.00;99.90;;;;;;5029175;28;20044;-72
2021/10/28 04:41:28;;;;;;;24.02;16.67;;;5.00;99.90;;;;;;5026551;28;20581;-72
2021/10/28 04:43:54;;;;;;;28.42;16.00;;;5.00;99.90;;;;;;5027531;28;20049;-72
2021/10/28 04:46:19;;;;;;;25.80;16.38;;;5.00;99.90;;;;;;5029954;28;20390;-72
2021/10/28 04:48:46;;;;;;;23.90;15.13;;;5.10;99.90;;;;;;5023187;28;20108;-72
2021/10/28 04:51:12;;;;;;;28.20;16.00;;;5.00;99.90;;;;;;5033333;28;20029;-72
2021/10/28 04:53:38;;;;;;;28.05;15.48;;;4.90;99.90;;;;;;5032557;28;20033;-72
2021/10/28 04:56:04;;;;;;;21.45;15.30;;;5.00;99.90;;;;;;5032034;28;20097;-72
2021/10/28 04:58:30;;;;;;;26.20;14.98;;;4.90;99.90;;;;;;5033814;28;20036;-72
2021/10/28 05:00:56;;;;;;;18.83;13.57;;;4.90;99.90;;;;;;5014825;28;20033;-72
2021/10/28 05:03:22;;;;;;;19.40;14.48;;;4.90;99.90;;;;;;5015180;28;20037;-72
2021/10/28 05:05:48;;;;;;;21.25;14.38;;;4.80;99.90;;;;;;5032276;28;20364;-73
2021/10/28 05:08:14;;;;;;;25.67;15.77;;;4.80;99.90;;;;;;5032670;28;20033;-71
2021/10/28 05:10:43;;;;;;;24.67;14.98;;;4.80;99.90;;;;;;5032299;28;20445;-71
2021/10/28 05:13:14;;;;;;;25.95;16.67;;;4.80;99.90;;;;;;5014622;28;20041;-76
2021/10/28 05:15:59;;;;;;;28.73;17.55;;;4.80;99.90;;;;;;5032327;28;20030;-76
2021/10/28 05:18:26;;;;;;;25.45;17.13;;;5.00;99.90;;;;;;5033137;28;20022;-75
2021/10/28 05:20:52;;;;;;;32.45;19.05;;;5.20;99.90;;;;;;5032618;28;20032;-76
2021/10/28 05:23:19;;;;;;;24.00;16.25;;;5.20;99.90;;;;;;5032765;28;20026;-75
2021/10/28 05:25:47;;;;;;;29.30;17.95;;;5.10;99.90;;;;;;5032342;28;20442;-69
2021/10/28 05:28:13;;;;;;;30.90;17.25;;;5.00;99.90;;;;;;5032419;28;20503;-70
2021/10/28 05:30:38;;;;;;;28.65;16.77;;;5.00;99.90;;;;;;5012806;28;20030;-70
2021/10/28 05:33:04;;;;;;;25.77;16.70;;;4.90;99.90;;;;;;5012567;28;20108;-71
2021/10/28 05:35:30;;;;;;;25.92;16.42;;;4.90;99.90;;;;;;5025000;28;20119;-71
2021/10/28 05:37:56;;;;;;;21.40;15.15;;;4.90;99.90;;;;;;5014691;28;20163;-71
2021/10/28 05:40:22;;;;;;;54.28;18.10;;;4.90;99.90;;;;;;5032639;28;20479;-71
2021/10/28 05:42:49;;;;;;;29.33;19.35;;;4.90;99.90;;;;;;5032254;28;20051;-71
2021/10/28 05:45:16;;;;;;;25.42;17.92;;;5.00;99.90;;;;;;5031936;28;20024;-70
2021/10/28 05:47:42;;;;;;;28.58;17.70;;;4.90;99.90;;;;;;5032709;28;20037;-70
2021/10/28 05:50:14;;;;;;;36.22;18.75;;;4.80;99.90;;;;;;5014379;28;20108;-73
2021/10/28 05:52:40;;;;;;;28.77;18.00;;;4.90;99.90;;;;;;5031007;28;20035;-66
2021/10/28 05:55:06;;;;;;;27.00;17.27;;;4.90;99.90;;;;;;5031478;28;20082;-67
2021/10/28 05:57:33;;;;;;;35.25;17.73;;;4.90;99.90;;;;;;5031492;28;20033;-65
2021/10/28 05:59:59;;;;;;;27.55;17.45;;;4.80;99.90;;;;;;5013902;28;20025;-64
2021/10/28 06:02:25;;;;;;;34.80;16.98;;;4.80;99.90;;;;;;5031832;28;20029;-66
2021/10/28 06:04:51;;;;;;;38.15;18.67;;;4.80;99.90;;;;;;5030536;28;20022;-66
2021/10/28 06:07:17;;;;;;;63.40;19.38;;;4.80;99.90;;;;;;5031863;28;20022;-66
2021/10/28 06:09:43;;;;;;;26.60;17.38;;;4.80;99.90;;;;;;5031730;28;20111;-66
2021/10/28 06:12:10;;;;;;;35.80;20.73;;;4.90;99.90;;;;;;5031906;28;20098;-66
2021/10/28 06:14:35;;;;;;;24.45;18.02;;;4.90;99.90;;;;;;5030952;28;20047;-65
2021/10/28 06:17:08;;;;;;;26.55;17.95;;;4.90;99.90;;;;;;5031644;28;20096;-66
2021/10/28 06:19:34;;;;;;;33.92;19.15;;;4.90;99.90;;;;;;5031515;28;20398;-65
2021/10/28 06:22:01;;;;;;;30.45;18.80;;;5.00;99.90;;;;;;5031532;28;20096;-65
2021/10/28 06:24:27;;;;;;;32.00;16.85;;;5.00;99.90;;;;;;5030879;28;20036;-65
2021/10/28 06:26:53;;;;;;;26.48;16.65;;;5.00;99.90;;;;;;5031277;28;20029;-65
2021/10/28 06:29:19;;;;;;;33.42;16.35;;;5.00;99.90;;;;;;5031635;28;20025;-66
2021/10/28 06:31:47;;;;;;;54.92;18.50;;;5.00;99.90;;;;;;5031914;28;20052;-66
2021/10/28 06:34:57;;;;;;;47.78;21.48;;;5.00;99.90;;;;;;5031440;28;20017;-66
2021/10/28 06:37:04;;;;;;;54.35;22.90;;;5.10;99.90;;;;;;5020438;28;20033;-65
2021/10/28 06:39:30;;;;;;;81.82;17.33;;;5.00;99.90;;;;;;5031078;28;20028;-65
2021/10/28 06:41:56;;;;;;;172.80;20.08;;;5.00;99.90;;;;;;5031247;28;20025;-65
2021/10/28 06:44:22;;;;;;;21.40;15.18;;;4.90;99.90;;;;;;5030232;28;20052;-65
2021/10/28 06:46:48;;;;;;;96.95;16.10;;;5.00;99.90;;;;;;5031171;28;20087;-65
2021/10/28 06:49:16;;;;;;;34.45;17.95;;;5.00;99.90;;;;;;5031338;28;20034;-66
2021/10/28 06:51:42;;;;;;;68.22;19.55;;;5.00;99.90;;;;;;5031264;28;20026;-66
2021/10/28 06:54:17;;;;;;;69.78;21.58;;;5.10;99.90;;;;;;5031267;28;20052;-66
2021/10/28 06:57:13;;;;;;;137.15;23.13;;;5.10;99.90;;;;;;5030997;28;20037;-66
2021/10/28 07:02:37;;;;;;;25.25;18.15;;;5.10;99.90;;;;;;5031100;28;20083;-67
2021/10/28 07:05:04;;;;;;;35.60;19.33;;;5.00;99.90;;;;;;5030333;28;20093;-65
2021/10/28 07:07:33;;;;;;;82.60;17.85;;;5.20;99.90;;;;;;5031249;28;20071;-66
2021/10/28 07:14:58;;;;;;;160.95;17.73;;;5.20;99.90;;;;;;5030848;28;20021;-65
2021/10/28 07:18:11;;;;;;;36.60;15.75;;;5.30;99.90;;;;;;5013459;28;20442;-65
2021/10/28 07:20:28;;;;;;;43.45;16.38;;;5.10;99.90;;;;;;5019800;28;20076;-65
2021/10/28 08:00:04;;;;;;;130.75;16.67;;;5.30;99.90;;;;;;5031408;28;20036;-66
2021/10/28 08:22:13;;;;;;;35.40;13.27;;;5.90;99.90;;;;;;5033540;28;20036;-65
2021/10/28 08:29:51;;;;;;;17.02;12.85;;;6.30;99.90;;;;;;5034716;28;20040;-65
2021/10/28 08:32:17;;;;;;;15.77;11.13;;;6.40;99.90;;;;;;5034865;28;20029;-63
2021/10/28 08:34:44;;;;;;;39.13;12.82;;;6.50;99.90;;;;;;5034029;28;20032;-65
2021/10/28 08:37:18;;;;;;;34.47;13.20;;;6.60;99.90;;;;;;5034351;28;20029;-67
2021/10/28 08:39:45;;;;;;;27.52;12.07;;;6.70;99.90;;;;;;5033127;28;20021;-65
2021/10/28 08:42:13;;;;;;;17.88;11.35;;;6.90;99.90;;;;;;5034243;28;20052;-64
2021/10/28 08:44:48;;;;;;;15.77;11.52;;;7.00;99.90;;;;;;5033345;28;20025;-65
2021/10/28 08:47:15;;;;;;;15.88;10.90;;;7.20;99.90;;;;;;5034132;28;20025;-67
2021/10/28 08:49:54;;;;;;;14.05;11.00;;;7.50;99.90;;;;;;5033964;28;20111;-65
2021/10/28 08:52:38;;;;;;;31.25;13.73;;;7.50;99.90;;;;;;5034130;28;20426;-65
2021/10/28 09:23:55;;;;;;;15.00;12.00;;;11.00;99.90;;;;;;5052957;28;20035;-68
2021/10/28 09:46:32;;;;;;;10.00;8.23;;;15.40;99.90;;;;;;5052599;28;20036;-68
2021/10/28 09:51:30;;;;;;;9.60;8.57;;;16.10;99.90;;;;;;5052852;28;20035;-68
2021/10/28 09:59:26;;;;;;;10.95;9.85;;;17.90;99.90;;;;;;5033480;28;20075;-68
2021/10/28 10:02:05;;;;;;;11.38;10.00;;;18.50;99.90;;;;;;5033180;28;20430;-68
2021/10/28 10:04:32;;;;;;;12.63;11.30;;;18.20;99.90;;;;;;5031720;28;20036;-68
2021/10/28 10:06:59;;;;;;;17.38;13.60;;;16.00;99.90;;;;;;5032661;28;20053;-69
2021/10/28 10:09:25;;;;;;;16.73;13.95;;;15.90;99.90;;;;;;5032950;28;20418;-68
2021/10/28 10:11:51;;;;;;;16.45;14.68;;;16.50;99.90;;;;;;5015302;28;20025;-68
2021/10/28 10:14:19;;;;;;;17.65;14.38;;;18.40;99.90;;;;;;5032177;28;20052;-68
2021/10/28 10:16:45;;;;;;;23.48;17.90;;;19.40;99.90;;;;;;5033055;28;20468;-68
2021/10/28 10:19:13;;;;;;;18.88;15.57;;;19.80;99.40;;;;;;5041442;28;20036;-70
2021/10/28 10:21:44;;;;;;;20.27;16.65;;;20.20;97.90;;;;;;5053063;28;20115;-69
2021/10/28 10:24:41;;;;;;;26.02;19.77;;;20.40;98.60;;;;;;5052422;28;20028;-68
2021/10/28 11:21:55;;;;;;;13.15;11.57;;;21.90;95.70;;;;;;5051543;28;20052;-69
2021/10/28 11:27:23;;;;;;;12.10;10.40;;;22.10;94.10;;;;;;5051725;28;20060;-70
2021/10/28 12:17:33;;;;;;;7.82;7.10;;;25.00;83.10;;;;;;5054417;28;20037;-69
2021/10/28 12:45:33;;;;;;;5.95;5.35;;;27.20;74.40;;;;;;5045001;28;20090;-73
2021/10/28 12:53:39;;;;;;;5.90;5.30;;;27.00;76.00;;;;;;5047681;28;20071;-73
2021/10/28 13:34:54;;;;;;;7.07;3.15;;;27.20;70.00;;;;;;5033648;28;20513;-72
2021/10/28 13:51:35;;;;;;;3.67;3.22;;;28.50;67.50;;;;;;5052269;28;20071;-73
2021/10/28 14:15:37;;;;;;;5.35;1.90;;;28.00;65.10;;;;;;5031375;28;20043;-73
2021/10/28 15:30:14;;;;;;;6.68;4.63;;;17.10;96.30;;;;;;5028427;28;20108;-72
2021/10/28 15:35:39;;;;;;;5.43;3.22;;;16.70;97.30;;;;;;5042122;28;20018;-71
2021/10/28 15:43:50;;;;;;;4.53;3.40;;;15.80;99.80;;;;;;5054747;28;20036;-71
2021/10/28 16:23:50;;;;;;;3.88;2.90;;;13.30;99.90;;;;;;5037683;28;20040;-74
2021/10/28 16:26:16;;;;;;;3.92;3.13;;;13.10;99.90;;;;;;5038249;28;20029;-75
2021/10/28 16:28:43;;;;;;;4.10;2.70;;;12.90;99.90;;;;;;5040788;28;20021;-75
2021/10/28 16:31:09;;;;;;;3.60;2.85;;;12.80;99.90;;;;;;5036764;28;20028;-75
2021/10/28 16:33:34;;;;;;;6.07;3.30;;;12.70;99.90;;;;;;5036775;28;20033;-71
2021/10/28 16:36:00;;;;;;;3.30;3.00;;;12.60;99.90;;;;;;5027344;28;20061;-77
2021/10/28 16:38:26;;;;;;;5.20;2.97;;;12.40;99.90;;;;;;5037535;28;20674;-75
2021/10/28 16:40:52;;;;;;;7.75;3.40;;;12.30;99.90;;;;;;5033150;28;20029;-75
2021/10/28 16:43:18;;;;;;;4.32;3.38;;;12.20;99.90;;;;;;5031829;28;20093;-75
2021/10/28 16:45:46;;;;;;;11.65;4.10;;;12.20;99.90;;;;;;5032812;28;20100;-71
2021/10/28 16:48:13;;;;;;;5.95;3.40;;;12.10;99.90;;;;;;5033851;28;20028;-71
2021/10/28 16:50:39;;;;;;;6.15;3.55;;;12.00;99.90;;;;;;5033324;28;20528;-71
2021/10/28 16:53:04;;;;;;;4.68;3.65;;;11.90;99.90;;;;;;5033847;28;20030;-71
2021/10/28 16:55:31;;;;;;;6.15;3.83;;;11.80;99.90;;;;;;5032789;28;20057;-70
2021/10/28 16:57:57;;;;;;;4.93;3.13;;;11.70;99.90;;;;;;5033874;28;20495;-71
2021/10/28 17:00:23;;;;;;;5.95;3.60;;;11.50;99.90;;;;;;5033173;28;20065;-71
2021/10/28 17:02:52;;;;;;;5.05;4.07;;;11.60;99.90;;;;;;5015600;28;20124;-71
2021/10/28 17:05:17;;;;;;;6.05;3.67;;;11.60;99.90;;;;;;5031923;28;20026;-71
2021/10/28 17:07:43;;;;;;;7.57;4.65;;;11.60;99.90;;;;;;5052846;28;20108;-71
2021/10/28 17:10:10;;;;;;;6.70;4.50;;;11.50;99.90;;;;;;5053603;28;20018;-73
2021/10/28 17:12:36;;;;;;;5.50;4.53;;;11.50;99.90;;;;;;5051267;28;20652;-75
2021/10/28 17:15:04;;;;;;;4.20;3.80;;;11.40;99.90;;;;;;5019420;28;20089;-75
2021/10/28 17:17:30;;;;;;;9.13;6.30;;;11.20;99.90;;;;;;5013352;28;20426;-75
2021/10/28 17:20:02;;;;;;;9.95;6.75;;;11.10;99.90;;;;;;4995219;28;20669;-75
2021/10/28 17:22:27;;;;;;;8.63;6.35;;;11.10;99.90;;;;;;5013793;28;20025;-77
2021/10/28 17:24:53;;;;;;;6.72;5.88;;;11.00;99.90;;;;;;5017908;28;20029;-77
2021/10/28 17:27:20;;;;;;;6.40;4.85;;;11.00;99.90;;;;;;5032628;28;20032;-76
2021/10/28 17:29:45;;;;;;;8.15;5.90;;;11.00;99.90;;;;;;5033629;28;20013;-75
2021/10/28 17:32:11;;;;;;;8.10;6.05;;;10.90;99.90;;;;;;5032977;28;20434;-76
2021/10/28 17:34:37;;;;;;;6.95;5.15;;;10.90;99.90;;;;;;5026564;28;20030;-76
2021/10/28 17:37:04;;;;;;;9.60;7.50;;;10.80;99.90;;;;;;5030328;28;20067;-76
2021/10/28 17:39:30;;;;;;;10.25;7.40;;;10.60;99.90;;;;;;5035352;28;20030;-77
2021/10/28 17:41:58;;;;;;;11.63;7.63;;;10.50;99.90;;;;;;5043233;28;20025;-77
2021/10/28 17:44:35;;;;;;;9.23;7.47;;;10.40;99.90;;;;;;5024154;28;20077;-76
2021/10/28 17:47:02;;;;;;;12.23;8.20;;;10.30;99.90;;;;;;5031314;28;20041;-77
2021/10/28 17:49:28;;;;;;;13.00;7.93;;;10.30;99.90;;;;;;5032305;28;20037;-77
2021/10/28 17:51:53;;;;;;;12.15;8.57;;;10.30;99.90;;;;;;5030958;28;20045;-75
2021/10/28 17:54:19;;;;;;;13.25;8.02;;;10.20;99.90;;;;;;5030978;28;20034;-75
2021/10/28 17:56:45;;;;;;;9.93;7.82;;;10.10;99.90;;;;;;5030962;28;20052;-77
2021/10/28 17:59:10;;;;;;;13.65;8.45;;;10.10;99.90;;;;;;5031802;28;20104;-75
2021/10/28 18:01:40;;;;;;;12.57;8.95;;;10.00;99.90;;;;;;5031161;28;20087;-77
2021/10/28 18:04:06;;;;;;;16.25;9.82;;;9.80;99.90;;;;;;5031488;28;20136;-77
2021/10/28 18:06:32;;;;;;;12.20;9.55;;;9.80;99.90;;;;;;5030506;28;20057;-78
2021/10/28 18:09:02;;;;;;;13.77;9.35;;;9.70;99.90;;;;;;5031196;28;20431;-78
2021/10/28 18:11:28;;;;;;;14.95;9.10;;;9.70;99.90;;;;;;5010834;28;20021;-76
2021/10/28 18:13:58;;;;;;;13.30;9.40;;;9.60;99.90;;;;;;5028854;28;20033;-78
2021/10/28 18:16:26;;;;;;;16.15;10.10;;;9.60;99.90;;;;;;5034622;28;20055;-77
2021/10/28 18:18:58;;;;;;;15.35;10.18;;;9.50;99.90;;;;;;5051341;28;20075;-76
2021/10/28 18:21:26;;;;;;;16.95;10.55;;;9.50;99.90;;;;;;5046489;28;20784;-78
2021/10/28 18:23:53;;;;;;;11.95;10.10;;;9.40;99.90;;;;;;5031543;28;20026;-77
2021/10/28 18:26:21;;;;;;;14.63;10.02;;;9.30;99.90;;;;;;5032608;28;20026;-78
2021/10/28 18:28:47;;;;;;;12.30;9.70;;;9.30;99.90;;;;;;5033721;28;20387;-77
2021/10/28 18:31:13;;;;;;;16.02;9.65;;;9.20;99.90;;;;;;5051872;28;20101;-77
2021/10/28 18:33:39;;;;;;;17.58;10.02;;;9.20;99.90;;;;;;5042533;28;20108;-77
2021/10/28 18:36:07;;;;;;;14.18;9.98;;;9.10;99.90;;;;;;5030925;28;20017;-77
2021/10/28 18:38:33;;;;;;;18.38;11.65;;;9.10;99.90;;;;;;5031164;28;20098;-77
2021/10/28 18:40:59;;;;;;;16.70;10.38;;;9.00;99.90;;;;;;5032435;28;20426;-77
2021/10/28 18:43:26;;;;;;;13.43;10.10;;;8.90;99.90;;;;;;5032443;28;20026;-78
2021/10/28 18:45:52;;;;;;;14.45;9.73;;;8.90;99.90;;;;;;5035927;28;20079;-77
2021/10/28 18:48:18;;;;;;;12.85;10.23;;;8.80;99.90;;;;;;5041106;28;20075;-76
2021/10/28 18:50:44;;;;;;;14.05;10.43;;;8.80;99.90;;;;;;5054523;28;20032;-75
2021/10/28 18:53:10;;;;;;;16.02;10.52;;;8.80;99.90;;;;;;5052544;28;20051;-77
2021/10/28 18:55:39;;;;;;;15.55;11.52;;;8.70;99.90;;;;;;5051065;28;20025;-77
2021/10/28 18:58:06;;;;;;;20.25;12.30;;;8.70;99.90;;;;;;5033054;28;20040;-77
2021/10/28 19:00:32;;;;;;;15.75;11.20;;;8.60;99.90;;;;;;5051181;28;20039;-75
2021/10/28 19:02:58;;;;;;;18.95;11.23;;;8.10;99.90;;;;;;5030093;28;20104;-73
2021/10/28 19:05:24;;;;;;;15.32;10.38;;;8.50;99.90;;;;;;5030464;28;20035;-76
2021/10/28 19:07:50;;;;;;;19.73;11.18;;;8.50;99.90;;;;;;5047394;28;20033;-75
2021/10/28 19:10:16;;;;;;;14.38;10.85;;;8.40;99.90;;;;;;5050642;28;20056;-76
2021/10/28 19:12:42;;;;;;;19.00;11.32;;;8.40;99.90;;;;;;5049045;28;20429;-75
2021/10/28 19:15:09;;;;;;;17.63;11.00;;;8.30;99.90;;;;;;5036291;28;20021;-75
2021/10/28 19:17:35;;;;;;;15.57;10.65;;;8.40;99.90;;;;;;5031146;28;20026;-75
2021/10/28 19:20:03;;;;;;;16.42;10.85;;;8.30;99.90;;;;;;5050465;28;20029;-76
2021/10/28 19:22:31;;;;;;;15.45;10.75;;;8.30;99.90;;;;;;5050488;28;20498;-77
2021/10/28 19:25:01;;;;;;;16.08;10.60;;;8.10;99.90;;;;;;5048413;28;20029;-74
2021/10/28 19:27:27;;;;;;;14.27;9.98;;;8.10;99.90;;;;;;5032938;28;20025;-74
2021/10/28 19:30:00;;;;;;;15.50;9.90;;;8.00;99.90;;;;;;5049047;28;20100;-75
2021/10/28 19:32:26;;;;;;;18.42;10.15;;;8.00;99.90;;;;;;5050372;28;20025;-75
2021/10/28 19:34:54;;;;;;;15.45;10.85;;;7.90;99.90;;;;;;5030911;28;20021;-74
2021/10/28 19:47:52;;;;;;;13.55;10.25;;;7.70;99.90;;;;;;4984453;28;20119;-75
2021/10/28 19:50:18;;;;;;;19.52;12.13;;;7.70;99.90;;;;;;5011123;28;20476;-76
2021/10/28 19:52:44;;;;;;;21.08;12.20;;;7.70;99.90;;;;;;5016445;28;20017;-75
2021/10/28 19:55:10;;;;;;;17.98;11.27;;;7.60;99.90;;;;;;5050118;28;20103;-75
2021/10/28 19:57:39;;;;;;;15.48;10.73;;;7.60;99.90;;;;;;5050577;28;20025;-74
2021/10/28 20:00:32;;;;;;;17.05;11.38;;;7.60;99.90;;;;;;5049717;28;20013;-75
2021/10/28 20:21:09;;;;;;;16.10;12.30;;;7.20;99.90;;;;;;5055723;28;20513;-74
2021/10/28 20:23:35;;;;;;;18.25;12.70;;;7.10;99.90;;;;;;5053728;28;20040;-75
2021/10/28 20:26:01;;;;;;;23.52;13.18;;;7.20;99.90;;;;;;5053995;28;20021;-72
2021/10/28 20:28:28;;;;;;;17.50;12.90;;;7.20;99.90;;;;;;5053448;28;20595;-71
2021/10/28 20:33:20;;;;;;;19.90;13.60;;;7.20;99.90;;;;;;5053197;28;20021;-71
2021/10/28 20:38:17;;;;;;;19.65;13.25;;;7.00;99.90;;;;;;5053486;28;20167;-69
2021/10/28 20:40:43;;;;;;;18.17;11.75;;;7.00;99.90;;;;;;5054065;28;20499;-69
2021/10/28 20:43:09;;;;;;;19.40;12.30;;;6.90;99.90;;;;;;5052077;28;20121;-68
2021/10/28 20:45:35;;;;;;;22.60;13.45;;;6.90;99.90;;;;;;5053057;28;20028;-69
2021/10/28 20:48:01;;;;;;;19.35;13.75;;;6.90;99.90;;;;;;5034114;28;20017;-69
2021/10/28 20:50:27;;;;;;;18.25;12.85;;;6.90;99.90;;;;;;5054301;28;20092;-68
2021/10/28 20:52:55;;;;;;;20.50;13.27;;;6.90;99.90;;;;;;5054415;28;20029;-68
2021/10/28 20:55:21;;;;;;;20.85;12.18;;;6.70;99.90;;;;;;5051508;28;20470;-67
2021/10/28 20:57:48;;;;;;;18.90;13.23;;;6.70;99.90;;;;;;5034977;28;20087;-63
2021/10/28 21:00:19;;;;;;;19.98;12.77;;;6.70;99.90;;;;;;5051532;28;20020;-65
2021/10/28 21:02:46;;;;;;;18.38;12.48;;;6.60;99.90;;;;;;5035123;28;20402;-64
2021/10/28 21:05:15;;;;;;;18.65;12.80;;;6.70;99.90;;;;;;5034287;28;20467;-64
2021/10/28 21:07:42;;;;;;;20.70;12.85;;;6.60;99.90;;;;;;5051944;28;20017;-63
2021/10/28 21:10:14;;;;;;;21.25;12.77;;;6.60;99.90;;;;;;5052895;28;20028;-64
2021/10/28 21:12:40;;;;;;;20.80;13.10;;;6.60;99.90;;;;;;5052753;28;20092;-62
2021/10/28 21:15:07;;;;;;;22.75;13.35;;;6.60;99.90;;;;;;5051918;28;20043;-64
2021/10/28 21:17:33;;;;;;;20.42;13.27;;;6.60;99.90;;;;;;5052813;28;20033;-64
2021/10/28 21:20:00;;;;;;;19.98;13.02;;;6.50;99.90;;;;;;5052603;28;20029;-65
2021/10/28 21:22:26;;;;;;;20.67;13.00;;;6.50;99.90;;;;;;5052492;28;20027;-64
2021/10/28 21:27:24;;;;;;;20.05;13.15;;;6.50;99.90;;;;;;5040208;28;20073;-67
2021/10/28 21:29:50;;;;;;;24.50;13.48;;;6.40;99.90;;;;;;5052704;28;20091;-67
2021/10/28 21:32:16;;;;;;;17.70;13.05;;;6.30;99.90;;;;;;5053039;28;20461;-66
2021/10/28 21:34:43;;;;;;;19.67;12.48;;;6.20;99.90;;;;;;5052224;28;20368;-67
2021/10/28 21:37:11;;;;;;;19.95;12.82;;;6.30;99.90;;;;;;5052788;28;20032;-67
2021/10/28 21:39:39;;;;;;;23.58;13.20;;;6.30;99.90;;;;;;5052973;28;20021;-66
2021/10/28 21:42:05;;;;;;;21.55;13.13;;;6.20;99.90;;;;;;5053165;28;20047;-67
2021/10/28 21:44:31;;;;;;;27.38;12.98;;;6.20;99.90;;;;;;5051922;28;20036;-67
2021/10/28 21:46:57;;;;;;;22.15;14.43;;;6.20;99.90;;;;;;5052864;28;20025;-67
2021/10/28 21:49:24;;;;;;;21.60;13.68;;;6.10;99.90;;;;;;5052660;28;20025;-67
2021/10/28 21:51:54;;;;;;;15.98;12.60;;;6.10;99.90;;;;;;5052891;28;20046;-66
2021/10/28 21:54:35;;;;;;;20.45;13.18;;;6.00;99.90;;;;;;5052415;28;20079;-66
2021/10/28 21:57:17;;;;;;;20.20;13.57;;;6.00;99.90;;;;;;5052366;28;20028;-68
2021/10/28 22:05:21;;;;;;;23.05;12.73;;;5.90;99.90;;;;;;5051630;28;20486;-66